This is the latest recevied weather packets stored in our database for station/object DL1GHN-6. If no packets are shown the sender has not sent any weather packets the latest 10 day(s).
| Time | Temp. | Humidity | Pressure | Rain* | Wind** | Luminosity | Snow |
|---|---|---|---|---|---|---|---|
| 1777565280 | 20.56° C | 22% | 1021.6 hPa | 0 mm | - | 316 W/m² | - |
| 1777564980 | 20.56° C | 21% | 1021.7 hPa | 0 mm | - | 178 W/m² | - |
| 1777564680 | 21.11° C | 23% | 1021.7 hPa | 0 mm | - | 88 W/m² | - |
| 1777564380 | 20.56° C | 23% | 1021.5 hPa | 0 mm | - | 44 W/m² | - |
| 1777564081 | 21.11° C | 22% | 1021.7 hPa | 0 mm | - | 44 W/m² | - |
| 1777563780 | 21.67° C | 23% | 1021.6 hPa | 0 mm | - | 410 W/m² | - |
| 1777563481 | 21.67° C | 21% | 1021.7 hPa | 0 mm | - | 424 W/m² | - |
| 1777563181 | 21.67° C | 22% | 1021.7 hPa | 0 mm | - | 436 W/m² | - |
| 1777562881 | 21.67° C | 21% | 1021.7 hPa | 0 mm | - | 448 W/m² | - |
| 1777562581 | 21.67° C | 23% | 1021.6 hPa | 0 mm | - | 461 W/m² | - |
| 1777562282 | 21.67° C | 22% | 1021.7 hPa | 0 mm | - | 475 W/m² | - |
| 1777561982 | 21.67° C | 23% | 1021.6 hPa | 0 mm | - | 489 W/m² | - |
| 1777561681 | 21.67° C | 23% | 1021.7 hPa | 0 mm | - | 497 W/m² | - |
| 1777561381 | 21.67° C | 23% | 1021.7 hPa | 0 mm | - | 517 W/m² | - |
| 1777561080 | 21.67° C | 23% | 1021.7 hPa | 0 mm | - | 529 W/m² | - |
| 1777560780 | 22.22° C | 22% | 1021.7 hPa | 0 mm | - | 541 W/m² | - |
| 1777560481 | 22.22° C | 21% | 1021.7 hPa | 0 mm | - | 554 W/m² | - |
| 1777560181 | 22.22° C | 25% | 1021.8 hPa | 0 mm | - | 566 W/m² | - |
| 1777559880 | 21.67° C | 27% | 1021.7 hPa | 0 mm | - | 580 W/m² | - |
| 1777559580 | 22.22° C | 24% | 1021.9 hPa | 0 mm | - | 591 W/m² | - |
| 1777559281 | 22.22° C | 26% | 1021.8 hPa | 0 mm | - | 599 W/m² | - |
| 1777558981 | 21.67° C | 27% | 1021.9 hPa | 0 mm | - | 615 W/m² | - |
| 1777558681 | 22.22° C | 21% | 1022 hPa | 0 mm | - | 626 W/m² | - |
| 1777558381 | 21.67° C | 25% | 1022 hPa | 0 mm | - | 638 W/m² | - |
| 1777558080 | 22.22° C | 23% | 1022.1 hPa | 0 mm | - | 650 W/m² | - |
* Rain latest hour (hover to see other rain measurements)
** Current wind speed in m/s (hover to see current wind gust speed)